This is the latest recevied weather packets stored in our database for station/object GW1476. If no packets are shown the sender has not sent any weather packets the latest 10 day(s).
| Time | Temp. | Humidity | Pressure | Rain* | Wind** | Luminosity | Snow |
|---|---|---|---|---|---|---|---|
| 1777600495 | 7.22° C | 99% | 1018.6 hPa | 0 mm | - | - | - |
| 1777598332 | 8.33° C | 94% | 1018.2 hPa | 0 mm | - | - | - |
| 1777595807 | 10° C | 83% | 1017.6 hPa | 0 mm | - | - | - |
| 1777592921 | 13.89° C | 56% | 1016.9 hPa | 0 mm | - | - | - |
| 1777590413 | 16.11° C | 54% | 1017.2 hPa | 0 mm | - | - | - |
| 1777588951 | 16.11° C | 53% | 1016.9 hPa | 0 mm | - | - | - |
| 1777584619 | 17.78° C | 51% | 1017.2 hPa | 0 mm | - | - | - |
| 1777583566 | 16.11° C | 53% | 1017.2 hPa | 0 mm | - | - | - |
| 1777573462 | 15.56° C | 58% | 1016.9 hPa | 0 mm | - | - | - |
| 1777573123 | 16.11° C | 57% | 1016.9 hPa | 0 mm | - | - | - |
| 1777568074 | 16.11° C | 54% | 1016.9 hPa | 0 mm | - | - | - |
| 1777564853 | 17.22° C | 53% | 1016.9 hPa | 0 mm | - | - | - |
| 1777564461 | 16.11° C | 54% | 1016.9 hPa | 0 mm | - | - | - |
| 1777555119 | 12.22° C | 77% | 1016.9 hPa | 0 mm | - | - | - |
| 1777554031 | 12.22° C | 78% | 1016.5 hPa | 0 mm | - | - | - |
| 1777552218 | 11.67° C | 81% | 1016.5 hPa | 0 mm | - | - | - |
| 1777547554 | 10° C | 93% | 1015.9 hPa | 0 mm | - | - | - |
| 1777543972 | 10° C | 99% | 1014.2 hPa | 0 mm | - | - | - |
| 1777541793 | 10.56° C | 99% | 1013.8 hPa | 0 mm | - | - | - |
| 1777541092 | 10.56° C | 99% | 1013.8 hPa | 0 mm | - | - | - |
| 1777539636 | 11.11° C | 99% | 1014.2 hPa | 0 mm | - | - | - |
| 1777533490 | 11.67° C | 99% | 1014.9 hPa | 0 mm | - | - | - |
| 1777533164 | 11.11° C | 99% | 1014.9 hPa | 0 mm | - | - | - |
| 1777529177 | 11.67° C | 99% | 1014.9 hPa | 0 mm | - | - | - |
| 1777525575 | 12.22° C | 99% | 1014.9 hPa | 0 mm | - | - | - |
* Rain since midnight (hover to see other rain measurements)
** Current wind speed in m/s (hover to see current wind gust speed)